KFAM/FAM METAR and TAF weather

Enter ICAO airport designator
Station Type Date Time Source
KFAM METAR 2021/09/24 05:56 UTC NOAA

KFAM 240556Z AUTO 00000KT 10SM CLR 09/09 A3008 RMK AO2 SLP196 T00940094 10178 20094 402220072 52001


Station Type Date Time Source
KFAM Decoded METAR 2021/09/24 05:56 UTC NOAA

Farmington Airport, MO, United States (KFAM) 37-46N 090-26W
Sep 24, 2021 - 01:56 AM EDT / 2021.09.24 0556 UTC
Wind: Calm:0
Visibility: 10 mile(s):0
Sky conditions: clear
Temperature: 48.9 F (9.4 C)
Dew Point: 48.9 F (9.4 C)
Relative Humidity: 100%
Pressure (altimeter): 30.08 in. Hg (1018 hPa)
Pressure tendency: 0.00 inches (0.1 hPa) higher than three hours ago
ob: KFAM 240556Z AUTO 00000KT 10SM CLR 09/09 A3008 RMK AO2 SLP196 T00940094 10178 20094 402220072 52001
cycle: 6

Station Type Date Time Source
KFAM TAF UTC NOAA

Error!

Example: see airport list